Ana Sayfa
METAR-TAF:

METAR-TAF

Havaalanları :

Westerly State Airport

Westerly, Rhode Island, Amerika Birleşik Devletleri

Enlem: 41-20-59N, Boylam: 071-47-56W, yükseklik: 24 m

Güncel hava durumu gözlemi

Rapor saat 06:53 UTC de 43 dakika önce yapıldı.
Rüzgar batıdan 4 kt
Sıcaklık 1°C
Nem 34%
Basınç 1009 hPa
Görüş mesafesi: 16.1 km
8000 ft yükseklikte çok bulutlu

METAR: KWST 290653Z AUTO 28004KT 10SM OVC080 01/M13 A2981 RMK AO2 SLP094 T00061133

Saat: 02:36 (07:36 UTC)


TAF: eksik

4.000'den fazla havaalanı için hava durumu gözlemleri ve tahminleri (METAR ve TAF raporları).

Kullanılabilir istasyonlar harita üzerinde sarı ve kırmızı noktalarla gösterilir.

İstasyonun adını görmek için fareyi noktanın üzerinde gezdirin.

Sonrasında hava gözlem ve tahminlerini görmek için tıklayın.

Haritayı değiştirmek için: yaklaştırmak için siyah artı işaretli yeşil düğmeye ve uzaklaştırmak için de eksi işaretli düğmeye hızla tıklayın; bitişik haritalar için yeşil okları kullanın.


METAR-TAF: